sensor_id;sensor_type;location;lat;lon;timestamp;P1;durP1;ratioP1;P2;durP2;ratioP2
43877;SDS011;29815;48.184;11.268;2023-07-30T00:01:35;2.42;;;1.80;;
43877;SDS011;29815;48.184;11.268;2023-07-30T00:04:06;2.70;;;1.90;;
43877;SDS011;29815;48.184;11.268;2023-07-30T00:06:35;2.50;;;1.60;;
43877;SDS011;29815;48.184;11.268;2023-07-30T00:09:05;2.05;;;1.45;;
43877;SDS011;29815;48.184;11.268;2023-07-30T00:11:34;3.25;;;1.55;;
43877;SDS011;29815;48.184;11.268;2023-07-30T00:14:06;1.95;;;1.50;;
43877;SDS011;29815;48.184;11.268;2023-07-30T00:16:35;2.50;;;1.48;;
43877;SDS011;29815;48.184;11.268;2023-07-30T00:19:05;2.92;;;1.80;;
43877;SDS011;29815;48.184;11.268;2023-07-30T00:21:34;2.83;;;1.77;;
43877;SDS011;29815;48.184;11.268;2023-07-30T00:24:04;2.13;;;1.75;;
43877;SDS011;29815;48.184;11.268;2023-07-30T00:26:34;3.22;;;1.55;;
43877;SDS011;29815;48.184;11.268;2023-07-30T00:29:06;5.87;;;2.07;;
43877;SDS011;29815;48.184;11.268;2023-07-30T00:31:37;3.08;;;1.60;;
43877;SDS011;29815;48.184;11.268;2023-07-30T00:34:07;1.73;;;1.50;;
43877;SDS011;29815;48.184;11.268;2023-07-30T00:36:36;2.30;;;1.80;;
43877;SDS011;29815;48.184;11.268;2023-07-30T00:39:06;3.60;;;1.65;;
43877;SDS011;29815;48.184;11.268;2023-07-30T00:41:40;2.58;;;1.80;;
43877;SDS011;29815;48.184;11.268;2023-07-30T00:44:09;2.58;;;2.03;;
43877;SDS011;29815;48.184;11.268;2023-07-30T00:46:39;4.05;;;1.80;;
43877;SDS011;29815;48.184;11.268;2023-07-30T00:49:09;2.72;;;1.98;;
43877;SDS011;29815;48.184;11.268;2023-07-30T00:51:39;2.58;;;1.42;;
43877;SDS011;29815;48.184;11.268;2023-07-30T00:54:12;2.85;;;1.40;;
43877;SDS011;29815;48.184;11.268;2023-07-30T00:56:45;3.70;;;1.60;;
43877;SDS011;29815;48.184;11.268;2023-07-30T00:59:19;2.08;;;1.40;;
43877;SDS011;29815;48.184;11.268;2023-07-30T01:01:50;2.20;;;1.52;;
43877;SDS011;29815;48.184;11.268;2023-07-30T01:04:20;3.13;;;1.67;;
43877;SDS011;29815;48.184;11.268;2023-07-30T01:06:50;4.30;;;2.03;;
43877;SDS011;29815;48.184;11.268;2023-07-30T01:09:20;2.72;;;2.13;;
43877;SDS011;29815;48.184;11.268;2023-07-30T01:11:52;1.77;;;1.40;;
43877;SDS011;29815;48.184;11.268;2023-07-30T01:14:24;3.15;;;2.10;;
43877;SDS011;29815;48.184;11.268;2023-07-30T01:16:54;4.25;;;2.00;;
43877;SDS011;29815;48.184;11.268;2023-07-30T01:19:24;2.40;;;1.80;;
43877;SDS011;29815;48.184;11.268;2023-07-30T01:21:55;3.33;;;1.63;;
43877;SDS011;29815;48.184;11.268;2023-07-30T01:24:25;3.00;;;1.85;;
43877;SDS011;29815;48.184;11.268;2023-07-30T01:26:55;2.17;;;1.80;;
43877;SDS011;29815;48.184;11.268;2023-07-30T01:29:32;2.40;;;1.95;;
43877;SDS011;29815;48.184;11.268;2023-07-30T01:32:18;2.50;;;1.95;;
43877;SDS011;29815;48.184;11.268;2023-07-30T01:34:54;5.68;;;1.73;;
43877;SDS011;29815;48.184;11.268;2023-07-30T01:37:27;2.65;;;1.55;;
43877;SDS011;29815;48.184;11.268;2023-07-30T01:39:58;2.13;;;1.65;;
43877;SDS011;29815;48.184;11.268;2023-07-30T01:42:30;2.50;;;1.40;;
43877;SDS011;29815;48.184;11.268;2023-07-30T01:44:59;4.13;;;2.10;;
43877;SDS011;29815;48.184;11.268;2023-07-30T01:47:30;4.32;;;1.80;;
43877;SDS011;29815;48.184;11.268;2023-07-30T01:49:59;2.90;;;2.10;;
43877;SDS011;29815;48.184;11.268;2023-07-30T01:52:30;3.75;;;2.05;;
43877;SDS011;29815;48.184;11.268;2023-07-30T01:55:00;2.45;;;1.60;;
43877;SDS011;29815;48.184;11.268;2023-07-30T01:57:32;2.55;;;1.90;;
43877;SDS011;29815;48.184;11.268;2023-07-30T02:00:01;4.18;;;2.20;;
43877;SDS011;29815;48.184;11.268;2023-07-30T02:02:32;2.88;;;1.73;;
43877;SDS011;29815;48.184;11.268;2023-07-30T02:05:04;3.58;;;2.38;;
43877;SDS011;29815;48.184;11.268;2023-07-30T02:07:35;3.35;;;2.00;;
43877;SDS011;29815;48.184;11.268;2023-07-30T02:10:05;2.15;;;1.60;;
43877;SDS011;29815;48.184;11.268;2023-07-30T02:12:35;2.67;;;1.60;;
43877;SDS011;29815;48.184;11.268;2023-07-30T02:15:05;2.90;;;2.00;;
43877;SDS011;29815;48.184;11.268;2023-07-30T02:17:36;4.45;;;2.50;;
43877;SDS011;29815;48.184;11.268;2023-07-30T02:20:06;3.15;;;2.42;;
43877;SDS011;29815;48.184;11.268;2023-07-30T02:22:39;3.57;;;2.63;;
43877;SDS011;29815;48.184;11.268;2023-07-30T02:25:09;2.78;;;2.00;;
43877;SDS011;29815;48.184;11.268;2023-07-30T02:27:38;3.63;;;2.25;;
43877;SDS011;29815;48.184;11.268;2023-07-30T02:30:08;4.28;;;2.50;;
43877;SDS011;29815;48.184;11.268;2023-07-30T02:32:39;4.00;;;2.40;;
43877;SDS011;29815;48.184;11.268;2023-07-30T02:35:10;4.07;;;2.65;;
43877;SDS011;29815;48.184;11.268;2023-07-30T02:37:41;3.67;;;2.53;;
43877;SDS011;29815;48.184;11.268;2023-07-30T02:40:11;3.00;;;2.30;;
43877;SDS011;29815;48.184;11.268;2023-07-30T02:42:41;3.72;;;2.60;;
43877;SDS011;29815;48.184;11.268;2023-07-30T02:45:10;5.05;;;2.33;;
43877;SDS011;29815;48.184;11.268;2023-07-30T02:47:40;3.50;;;2.75;;
43877;SDS011;29815;48.184;11.268;2023-07-30T02:50:09;4.03;;;2.10;;
43877;SDS011;29815;48.184;11.268;2023-07-30T02:52:40;5.30;;;2.40;;
43877;SDS011;29815;48.184;11.268;2023-07-30T02:55:10;4.35;;;2.63;;
43877;SDS011;29815;48.184;11.268;2023-07-30T02:57:40;3.83;;;2.55;;
43877;SDS011;29815;48.184;11.268;2023-07-30T03:00:09;5.88;;;2.20;;
43877;SDS011;29815;48.184;11.268;2023-07-30T03:02:40;4.35;;;3.38;;
43877;SDS011;29815;48.184;11.268;2023-07-30T03:05:10;4.65;;;2.97;;
43877;SDS011;29815;48.184;11.268;2023-07-30T03:07:41;2.85;;;2.00;;
43877;SDS011;29815;48.184;11.268;2023-07-30T03:10:10;3.83;;;2.45;;
43877;SDS011;29815;48.184;11.268;2023-07-30T03:12:40;3.13;;;2.42;;
43877;SDS011;29815;48.184;11.268;2023-07-30T03:15:10;3.67;;;2.53;;
43877;SDS011;29815;48.184;11.268;2023-07-30T03:17:40;5.72;;;2.55;;
43877;SDS011;29815;48.184;11.268;2023-07-30T03:20:09;3.75;;;2.50;;
43877;SDS011;29815;48.184;11.268;2023-07-30T03:22:41;5.03;;;2.80;;
43877;SDS011;29815;48.184;11.268;2023-07-30T03:25:10;3.22;;;2.25;;
43877;SDS011;29815;48.184;11.268;2023-07-30T03:27:40;3.13;;;2.50;;
43877;SDS011;29815;48.184;11.268;2023-07-30T03:30:10;2.83;;;2.45;;
43877;SDS011;29815;48.184;11.268;2023-07-30T03:32:40;2.95;;;2.40;;
43877;SDS011;29815;48.184;11.268;2023-07-30T03:35:10;3.95;;;2.58;;
43877;SDS011;29815;48.184;11.268;2023-07-30T03:37:41;5.22;;;3.00;;
43877;SDS011;29815;48.184;11.268;2023-07-30T03:40:10;3.90;;;2.67;;
43877;SDS011;29815;48.184;11.268;2023-07-30T03:42:40;4.20;;;2.90;;
43877;SDS011;29815;48.184;11.268;2023-07-30T03:45:10;2.95;;;2.60;;
43877;SDS011;29815;48.184;11.268;2023-07-30T03:47:39;6.05;;;2.83;;
43877;SDS011;29815;48.184;11.268;2023-07-30T03:50:09;4.82;;;2.50;;
43877;SDS011;29815;48.184;11.268;2023-07-30T03:52:40;3.55;;;2.90;;
43877;SDS011;29815;48.184;11.268;2023-07-30T03:55:10;4.28;;;3.30;;
43877;SDS011;29815;48.184;11.268;2023-07-30T03:57:39;4.35;;;2.80;;
43877;SDS011;29815;48.184;11.268;2023-07-30T04:00:09;4.55;;;2.70;;
43877;SDS011;29815;48.184;11.268;2023-07-30T04:02:42;4.07;;;2.75;;
43877;SDS011;29815;48.184;11.268;2023-07-30T04:05:12;4.93;;;2.40;;
43877;SDS011;29815;48.184;11.268;2023-07-30T04:07:43;3.20;;;2.60;;
43877;SDS011;29815;48.184;11.268;2023-07-30T04:10:13;4.45;;;2.38;;
43877;SDS011;29815;48.184;11.268;2023-07-30T04:12:42;3.08;;;2.20;;
43877;SDS011;29815;48.184;11.268;2023-07-30T04:15:14;4.18;;;2.60;;
43877;SDS011;29815;48.184;11.268;2023-07-30T04:17:44;3.00;;;2.50;;
43877;SDS011;29815;48.184;11.268;2023-07-30T04:20:16;3.45;;;2.38;;
43877;SDS011;29815;48.184;11.268;2023-07-30T04:22:47;4.68;;;2.95;;
43877;SDS011;29815;48.184;11.268;2023-07-30T04:25:17;3.83;;;2.38;;
43877;SDS011;29815;48.184;11.268;2023-07-30T04:27:47;3.35;;;2.50;;
43877;SDS011;29815;48.184;11.268;2023-07-30T04:30:16;3.03;;;2.38;;
43877;SDS011;29815;48.184;11.268;2023-07-30T04:32:46;4.18;;;2.42;;
43877;SDS011;29815;48.184;11.268;2023-07-30T04:35:16;3.63;;;2.75;;
43877;SDS011;29815;48.184;11.268;2023-07-30T04:37:45;2.63;;;2.30;;
43877;SDS011;29815;48.184;11.268;2023-07-30T04:40:18;3.53;;;2.53;;
43877;SDS011;29815;48.184;11.268;2023-07-30T04:42:47;5.10;;;2.90;;
43877;SDS011;29815;48.184;11.268;2023-07-30T04:45:17;3.03;;;2.30;;
43877;SDS011;29815;48.184;11.268;2023-07-30T04:47:48;3.17;;;2.13;;
43877;SDS011;29815;48.184;11.268;2023-07-30T04:50:18;3.65;;;2.83;;
43877;SDS011;29815;48.184;11.268;2023-07-30T04:52:49;2.80;;;2.20;;
43877;SDS011;29815;48.184;11.268;2023-07-30T04:55:19;3.13;;;2.83;;
43877;SDS011;29815;48.184;11.268;2023-07-30T04:57:49;3.38;;;2.20;;
43877;SDS011;29815;48.184;11.268;2023-07-30T05:00:19;2.78;;;2.33;;
43877;SDS011;29815;48.184;11.268;2023-07-30T05:02:48;3.13;;;2.38;;
43877;SDS011;29815;48.184;11.268;2023-07-30T05:05:18;3.38;;;2.65;;
43877;SDS011;29815;48.184;11.268;2023-07-30T05:07:47;2.83;;;2.40;;
43877;SDS011;29815;48.184;11.268;2023-07-30T05:10:18;3.20;;;2.40;;
43877;SDS011;29815;48.184;11.268;2023-07-30T05:12:48;3.50;;;2.45;;
43877;SDS011;29815;48.184;11.268;2023-07-30T05:15:17;3.83;;;2.65;;
43877;SDS011;29815;48.184;11.268;2023-07-30T05:17:47;3.65;;;2.78;;
43877;SDS011;29815;48.184;11.268;2023-07-30T05:20:17;5.60;;;2.92;;
43877;SDS011;29815;48.184;11.268;2023-07-30T05:22:46;3.90;;;2.42;;
43877;SDS011;29815;48.184;11.268;2023-07-30T05:25:17;3.92;;;2.47;;
43877;SDS011;29815;48.184;11.268;2023-07-30T05:27:47;3.25;;;2.38;;
43877;SDS011;29815;48.184;11.268;2023-07-30T05:30:16;3.85;;;2.58;;
43877;SDS011;29815;48.184;11.268;2023-07-30T05:32:46;3.38;;;2.35;;
43877;SDS011;29815;48.184;11.268;2023-07-30T05:35:16;3.17;;;2.38;;
43877;SDS011;29815;48.184;11.268;2023-07-30T05:37:46;3.25;;;2.47;;
43877;SDS011;29815;48.184;11.268;2023-07-30T05:40:15;3.85;;;2.80;;
43877;SDS011;29815;48.184;11.268;2023-07-30T05:42:46;3.40;;;2.47;;
43877;SDS011;29815;48.184;11.268;2023-07-30T05:45:16;3.10;;;1.85;;
43877;SDS011;29815;48.184;11.268;2023-07-30T05:47:46;3.70;;;2.63;;
43877;SDS011;29815;48.184;11.268;2023-07-30T05:50:16;2.42;;;1.92;;
43877;SDS011;29815;48.184;11.268;2023-07-30T05:52:46;2.90;;;2.40;;
43877;SDS011;29815;48.184;11.268;2023-07-30T05:55:15;3.03;;;2.20;;
43877;SDS011;29815;48.184;11.268;2023-07-30T05:57:46;2.63;;;2.38;;
43877;SDS011;29815;48.184;11.268;2023-07-30T06:00:16;2.70;;;2.35;;
43877;SDS011;29815;48.184;11.268;2023-07-30T06:02:46;4.38;;;2.70;;
43877;SDS011;29815;48.184;11.268;2023-07-30T06:05:15;3.15;;;2.58;;
43877;SDS011;29815;48.184;11.268;2023-07-30T06:07:45;2.97;;;2.33;;
43877;SDS011;29815;48.184;11.268;2023-07-30T06:10:15;2.38;;;1.80;;
43877;SDS011;29815;48.184;11.268;2023-07-30T06:12:46;3.42;;;2.42;;
43877;SDS011;29815;48.184;11.268;2023-07-30T06:15:15;4.50;;;1.90;;
43877;SDS011;29815;48.184;11.268;2023-07-30T06:17:45;3.55;;;2.45;;
43877;SDS011;29815;48.184;11.268;2023-07-30T06:20:15;3.83;;;2.15;;
43877;SDS011;29815;48.184;11.268;2023-07-30T06:22:45;3.20;;;2.10;;
43877;SDS011;29815;48.184;11.268;2023-07-30T06:25:15;3.40;;;2.50;;
43877;SDS011;29815;48.184;11.268;2023-07-30T06:27:46;4.20;;;2.22;;
43877;SDS011;29815;48.184;11.268;2023-07-30T06:30:16;3.17;;;2.15;;
43877;SDS011;29815;48.184;11.268;2023-07-30T06:32:46;7.90;;;2.05;;
43877;SDS011;29815;48.184;11.268;2023-07-30T06:35:15;2.70;;;2.00;;
43877;SDS011;29815;48.184;11.268;2023-07-30T06:37:45;3.25;;;2.20;;
43877;SDS011;29815;48.184;11.268;2023-07-30T06:40:15;3.00;;;1.92;;
43877;SDS011;29815;48.184;11.268;2023-07-30T06:42:46;2.50;;;2.03;;
43877;SDS011;29815;48.184;11.268;2023-07-30T06:45:15;4.32;;;2.13;;
43877;SDS011;29815;48.184;11.268;2023-07-30T06:47:45;2.88;;;2.10;;
43877;SDS011;29815;48.184;11.268;2023-07-30T06:50:15;3.47;;;2.20;;
43877;SDS011;29815;48.184;11.268;2023-07-30T06:52:44;2.63;;;1.70;;
43877;SDS011;29815;48.184;11.268;2023-07-30T06:55:14;3.08;;;2.28;;
43877;SDS011;29815;48.184;11.268;2023-07-30T06:57:45;3.45;;;2.08;;
43877;SDS011;29815;48.184;11.268;2023-07-30T07:00:15;2.90;;;2.20;;
43877;SDS011;29815;48.184;11.268;2023-07-30T07:02:49;2.83;;;1.60;;
43877;SDS011;29815;48.184;11.268;2023-07-30T07:05:19;3.70;;;2.28;;
43877;SDS011;29815;48.184;11.268;2023-07-30T07:07:48;2.75;;;2.00;;
43877;SDS011;29815;48.184;11.268;2023-07-30T07:10:18;2.25;;;1.95;;
43877;SDS011;29815;48.184;11.268;2023-07-30T07:12:49;3.83;;;1.90;;
43877;SDS011;29815;48.184;11.268;2023-07-30T07:15:19;4.00;;;1.90;;
43877;SDS011;29815;48.184;11.268;2023-07-30T07:17:49;2.90;;;2.08;;
43877;SDS011;29815;48.184;11.268;2023-07-30T07:20:18;3.45;;;2.45;;
43877;SDS011;29815;48.184;11.268;2023-07-30T07:22:48;2.90;;;1.98;;
43877;SDS011;29815;48.184;11.268;2023-07-30T07:25:17;4.15;;;2.67;;
43877;SDS011;29815;48.184;11.268;2023-07-30T07:27:50;4.68;;;2.10;;
43877;SDS011;29815;48.184;11.268;2023-07-30T07:30:19;2.78;;;2.05;;
43877;SDS011;29815;48.184;11.268;2023-07-30T07:32:49;4.05;;;2.42;;
43877;SDS011;29815;48.184;11.268;2023-07-30T07:35:19;3.15;;;1.85;;
43877;SDS011;29815;48.184;11.268;2023-07-30T07:37:48;2.40;;;1.65;;
43877;SDS011;29815;48.184;11.268;2023-07-30T07:40:18;2.72;;;1.75;;
43877;SDS011;29815;48.184;11.268;2023-07-30T07:42:47;4.82;;;2.72;;
43877;SDS011;29815;48.184;11.268;2023-07-30T07:45:18;4.57;;;2.00;;
43877;SDS011;29815;48.184;11.268;2023-07-30T07:47:48;2.83;;;2.08;;
43877;SDS011;29815;48.184;11.268;2023-07-30T07:50:18;4.15;;;1.83;;
43877;SDS011;29815;48.184;11.268;2023-07-30T07:55:38;3.83;;;1.98;;
43877;SDS011;29815;48.184;11.268;2023-07-30T07:58:09;2.85;;;2.28;;
43877;SDS011;29815;48.184;11.268;2023-07-30T08:00:39;3.67;;;1.83;;
43877;SDS011;29815;48.184;11.268;2023-07-30T08:03:09;2.75;;;1.70;;
43877;SDS011;29815;48.184;11.268;2023-07-30T08:05:38;3.00;;;1.80;;
43877;SDS011;29815;48.184;11.268;2023-07-30T08:08:08;2.97;;;1.83;;
43877;SDS011;29815;48.184;11.268;2023-07-30T08:10:39;2.78;;;2.42;;
43877;SDS011;29815;48.184;11.268;2023-07-30T08:13:12;2.45;;;1.75;;
43877;SDS011;29815;48.184;11.268;2023-07-30T08:15:42;2.90;;;2.07;;
43877;SDS011;29815;48.184;11.268;2023-07-30T08:18:12;4.60;;;1.80;;
43877;SDS011;29815;48.184;11.268;2023-07-30T08:20:41;2.60;;;1.85;;
43877;SDS011;29815;48.184;11.268;2023-07-30T08:23:11;4.55;;;1.88;;
43877;SDS011;29815;48.184;11.268;2023-07-30T08:25:41;4.25;;;1.60;;
43877;SDS011;29815;48.184;11.268;2023-07-30T08:28:10;2.88;;;1.92;;
43877;SDS011;29815;48.184;11.268;2023-07-30T08:30:41;2.67;;;1.95;;
43877;SDS011;29815;48.184;11.268;2023-07-30T08:33:11;2.42;;;1.52;;
43877;SDS011;29815;48.184;11.268;2023-07-30T08:35:41;3.42;;;1.88;;
43877;SDS011;29815;48.184;11.268;2023-07-30T08:38:11;3.42;;;2.15;;
43877;SDS011;29815;48.184;11.268;2023-07-30T08:40:40;2.00;;;1.80;;
43877;SDS011;29815;48.184;11.268;2023-07-30T08:43:10;1.85;;;1.52;;
43877;SDS011;29815;48.184;11.268;2023-07-30T08:45:41;2.08;;;1.50;;
43877;SDS011;29815;48.184;11.268;2023-07-30T08:48:12;2.90;;;1.98;;
43877;SDS011;29815;48.184;11.268;2023-07-30T08:50:42;4.53;;;2.13;;
43877;SDS011;29815;48.184;11.268;2023-07-30T08:53:13;2.17;;;1.85;;
43877;SDS011;29815;48.184;11.268;2023-07-30T08:55:43;2.75;;;1.85;;
43877;SDS011;29815;48.184;11.268;2023-07-30T08:58:13;2.03;;;1.65;;
43877;SDS011;29815;48.184;11.268;2023-07-30T09:00:45;3.05;;;1.88;;
43877;SDS011;29815;48.184;11.268;2023-07-30T09:03:19;4.07;;;1.70;;
43877;SDS011;29815;48.184;11.268;2023-07-30T09:05:51;2.42;;;1.55;;
43877;SDS011;29815;48.184;11.268;2023-07-30T09:08:21;2.78;;;1.55;;
43877;SDS011;29815;48.184;11.268;2023-07-30T09:10:52;3.35;;;2.05;;
43877;SDS011;29815;48.184;11.268;2023-07-30T09:13:21;3.42;;;1.50;;
43877;SDS011;29815;48.184;11.268;2023-07-30T09:15:53;2.53;;;1.58;;
43877;SDS011;29815;48.184;11.268;2023-07-30T09:18:22;3.20;;;2.28;;
43877;SDS011;29815;48.184;11.268;2023-07-30T09:20:52;2.60;;;1.60;;
43877;SDS011;29815;48.184;11.268;2023-07-30T09:23:22;3.53;;;1.70;;
43877;SDS011;29815;48.184;11.268;2023-07-30T09:25:51;2.92;;;1.88;;
43877;SDS011;29815;48.184;11.268;2023-07-30T09:28:30;2.67;;;2.00;;
43877;SDS011;29815;48.184;11.268;2023-07-30T09:31:01;2.80;;;1.58;;
43877;SDS011;29815;48.184;11.268;2023-07-30T09:33:48;2.00;;;1.45;;
43877;SDS011;29815;48.184;11.268;2023-07-30T09:36:19;2.20;;;1.50;;
43877;SDS011;29815;48.184;11.268;2023-07-30T09:38:49;3.67;;;2.28;;
43877;SDS011;29815;48.184;11.268;2023-07-30T09:41:18;2.92;;;1.85;;
43877;SDS011;29815;48.184;11.268;2023-07-30T09:43:49;1.67;;;1.48;;
43877;SDS011;29815;48.184;11.268;2023-07-30T09:46:30;2.35;;;1.60;;
43877;SDS011;29815;48.184;11.268;2023-07-30T09:48:59;2.97;;;1.45;;
43877;SDS011;29815;48.184;11.268;2023-07-30T09:51:32;3.75;;;1.40;;
43877;SDS011;29815;48.184;11.268;2023-07-30T09:54:03;2.20;;;1.70;;
43877;SDS011;29815;48.184;11.268;2023-07-30T09:56:35;2.50;;;1.70;;
43877;SDS011;29815;48.184;11.268;2023-07-30T09:59:06;2.28;;;1.60;;
43877;SDS011;29815;48.184;11.268;2023-07-30T10:01:40;1.67;;;1.30;;
43877;SDS011;29815;48.184;11.268;2023-07-30T10:04:15;3.03;;;1.50;;
43877;SDS011;29815;48.184;11.268;2023-07-30T10:06:51;1.98;;;1.60;;
43877;SDS011;29815;48.184;11.268;2023-07-30T10:09:27;1.85;;;1.45;;
43877;SDS011;29815;48.184;11.268;2023-07-30T10:12:06;2.67;;;1.40;;
43877;SDS011;29815;48.184;11.268;2023-07-30T10:14:36;2.78;;;1.60;;
43877;SDS011;29815;48.184;11.268;2023-07-30T10:17:09;2.33;;;1.63;;
43877;SDS011;29815;48.184;11.268;2023-07-30T10:19:40;2.33;;;1.48;;
43877;SDS011;29815;48.184;11.268;2023-07-30T10:22:19;2.40;;;1.73;;
43877;SDS011;29815;48.184;11.268;2023-07-30T10:24:55;3.22;;;1.80;;
43877;SDS011;29815;48.184;11.268;2023-07-30T10:27:35;2.22;;;1.42;;
43877;SDS011;29815;48.184;11.268;2023-07-30T10:30:08;2.08;;;1.70;;
43877;SDS011;29815;48.184;11.268;2023-07-30T10:32:42;1.88;;;1.30;;
43877;SDS011;29815;48.184;11.268;2023-07-30T10:35:37;2.05;;;1.60;;
43877;SDS011;29815;48.184;11.268;2023-07-30T10:38:13;2.17;;;1.45;;
43877;SDS011;29815;48.184;11.268;2023-07-30T10:43:46;2.13;;;1.65;;
43877;SDS011;29815;48.184;11.268;2023-07-30T10:46:18;1.67;;;1.27;;
43877;SDS011;29815;48.184;11.268;2023-07-30T10:48:49;2.53;;;2.03;;
43877;SDS011;29815;48.184;11.268;2023-07-30T10:51:19;2.00;;;1.40;;
43877;SDS011;29815;48.184;11.268;2023-07-30T10:53:50;4.50;;;1.88;;
43877;SDS011;29815;48.184;11.268;2023-07-30T10:56:21;2.22;;;1.50;;
43877;SDS011;29815;48.184;11.268;2023-07-30T10:58:53;3.20;;;2.08;;
43877;SDS011;29815;48.184;11.268;2023-07-30T11:01:24;2.83;;;1.45;;
43877;SDS011;29815;48.184;11.268;2023-07-30T11:03:56;2.22;;;1.60;;
43877;SDS011;29815;48.184;11.268;2023-07-30T11:06:26;2.20;;;1.35;;
43877;SDS011;29815;48.184;11.268;2023-07-30T11:08:56;1.63;;;1.30;;
43877;SDS011;29815;48.184;11.268;2023-07-30T11:11:25;3.08;;;1.50;;
43877;SDS011;29815;48.184;11.268;2023-07-30T11:13:55;1.25;;;1.15;;
43877;SDS011;29815;48.184;11.268;2023-07-30T11:16:26;2.92;;;1.45;;
43877;SDS011;29815;48.184;11.268;2023-07-30T11:18:57;2.40;;;1.38;;
43877;SDS011;29815;48.184;11.268;2023-07-30T11:21:27;1.43;;;1.27;;
43877;SDS011;29815;48.184;11.268;2023-07-30T11:23:57;1.77;;;1.10;;
43877;SDS011;29815;48.184;11.268;2023-07-30T11:26:26;3.92;;;1.60;;
43877;SDS011;29815;48.184;11.268;2023-07-30T11:28:56;3.40;;;1.77;;
43877;SDS011;29815;48.184;11.268;2023-07-30T11:31:25;2.05;;;1.27;;
43877;SDS011;29815;48.184;11.268;2023-07-30T11:33:55;1.80;;;1.20;;
43877;SDS011;29815;48.184;11.268;2023-07-30T11:36:26;2.80;;;1.60;;
43877;SDS011;29815;48.184;11.268;2023-07-30T11:38:56;2.28;;;1.38;;
43877;SDS011;29815;48.184;11.268;2023-07-30T11:41:25;2.13;;;1.40;;
43877;SDS011;29815;48.184;11.268;2023-07-30T11:43:56;2.65;;;1.75;;
43877;SDS011;29815;48.184;11.268;2023-07-30T11:46:25;2.28;;;1.60;;
43877;SDS011;29815;48.184;11.268;2023-07-30T11:49:11;3.08;;;1.70;;
43877;SDS011;29815;48.184;11.268;2023-07-30T11:51:44;2.42;;;1.80;;
43877;SDS011;29815;48.184;11.268;2023-07-30T11:54:18;2.10;;;1.40;;
43877;SDS011;29815;48.184;11.268;2023-07-30T11:56:53;2.97;;;1.70;;
43877;SDS011;29815;48.184;11.268;2023-07-30T11:59:23;2.38;;;1.60;;
43877;SDS011;29815;48.184;11.268;2023-07-30T12:01:53;2.53;;;1.70;;
43877;SDS011;29815;48.184;11.268;2023-07-30T12:04:24;4.00;;;1.83;;
43877;SDS011;29815;48.184;11.268;2023-07-30T12:06:59;3.15;;;1.63;;
43877;SDS011;29815;48.184;11.268;2023-07-30T12:09:34;2.38;;;1.70;;
43877;SDS011;29815;48.184;11.268;2023-07-30T12:12:05;4.75;;;1.90;;
43877;SDS011;29815;48.184;11.268;2023-07-30T12:14:43;4.53;;;2.00;;
43877;SDS011;29815;48.184;11.268;2023-07-30T12:17:22;2.75;;;1.58;;
43877;SDS011;29815;48.184;11.268;2023-07-30T12:19:53;2.33;;;1.60;;
43877;SDS011;29815;48.184;11.268;2023-07-30T12:22:23;4.28;;;1.60;;
43877;SDS011;29815;48.184;11.268;2023-07-30T12:24:52;2.63;;;1.90;;
43877;SDS011;29815;48.184;11.268;2023-07-30T12:27:22;3.67;;;2.00;;
43877;SDS011;29815;48.184;11.268;2023-07-30T12:29:51;2.40;;;1.88;;
43877;SDS011;29815;48.184;11.268;2023-07-30T12:32:21;2.88;;;1.88;;
43877;SDS011;29815;48.184;11.268;2023-07-30T12:34:53;4.25;;;1.80;;
43877;SDS011;29815;48.184;11.268;2023-07-30T12:37:23;2.63;;;1.45;;
43877;SDS011;29815;48.184;11.268;2023-07-30T12:39:53;2.22;;;1.52;;
43877;SDS011;29815;48.184;11.268;2023-07-30T12:42:22;2.67;;;1.95;;
43877;SDS011;29815;48.184;11.268;2023-07-30T12:44:52;2.10;;;1.80;;
43877;SDS011;29815;48.184;11.268;2023-07-30T12:47:24;2.78;;;1.90;;
43877;SDS011;29815;48.184;11.268;2023-07-30T12:49:55;2.65;;;1.52;;
43877;SDS011;29815;48.184;11.268;2023-07-30T12:52:24;2.88;;;1.80;;
43877;SDS011;29815;48.184;11.268;2023-07-30T12:54:54;3.05;;;2.00;;
43877;SDS011;29815;48.184;11.268;2023-07-30T12:57:24;2.67;;;1.80;;
43877;SDS011;29815;48.184;11.268;2023-07-30T12:59:53;2.38;;;1.73;;
43877;SDS011;29815;48.184;11.268;2023-07-30T13:02:23;3.05;;;1.90;;
43877;SDS011;29815;48.184;11.268;2023-07-30T13:04:52;4.00;;;2.08;;
43877;SDS011;29815;48.184;11.268;2023-07-30T13:07:23;3.15;;;1.80;;
43877;SDS011;29815;48.184;11.268;2023-07-30T13:10:01;5.18;;;2.00;;
43877;SDS011;29815;48.184;11.268;2023-07-30T13:12:34;3.00;;;2.28;;
43877;SDS011;29815;48.184;11.268;2023-07-30T13:15:04;2.90;;;1.88;;
43877;SDS011;29815;48.184;11.268;2023-07-30T13:17:36;8.23;;;2.85;;
43877;SDS011;29815;48.184;11.268;2023-07-30T13:20:08;7.93;;;3.20;;
43877;SDS011;29815;48.184;11.268;2023-07-30T13:22:39;6.85;;;2.72;;
43877;SDS011;29815;48.184;11.268;2023-07-30T13:25:08;13.48;;;4.05;;
43877;SDS011;29815;48.184;11.268;2023-07-30T13:27:38;5.47;;;2.15;;
43877;SDS011;29815;48.184;11.268;2023-07-30T13:30:08;7.43;;;3.10;;
43877;SDS011;29815;48.184;11.268;2023-07-30T13:32:38;4.78;;;2.60;;
43877;SDS011;29815;48.184;11.268;2023-07-30T13:35:09;3.25;;;2.10;;
43877;SDS011;29815;48.184;11.268;2023-07-30T13:37:39;2.38;;;2.00;;
43877;SDS011;29815;48.184;11.268;2023-07-30T13:40:09;3.60;;;2.22;;
43877;SDS011;29815;48.184;11.268;2023-07-30T13:42:39;3.25;;;2.00;;
43877;SDS011;29815;48.184;11.268;2023-07-30T13:45:09;2.72;;;2.05;;
43877;SDS011;29815;48.184;11.268;2023-07-30T13:47:39;2.13;;;1.70;;
43877;SDS011;29815;48.184;11.268;2023-07-30T13:50:12;2.90;;;1.85;;
43877;SDS011;29815;48.184;11.268;2023-07-30T13:52:43;2.90;;;1.98;;
43877;SDS011;29815;48.184;11.268;2023-07-30T13:55:14;3.85;;;2.20;;
43877;SDS011;29815;48.184;11.268;2023-07-30T13:57:44;2.47;;;1.77;;
43877;SDS011;29815;48.184;11.268;2023-07-30T14:00:14;2.55;;;1.50;;
43877;SDS011;29815;48.184;11.268;2023-07-30T14:02:43;2.80;;;2.20;;
43877;SDS011;29815;48.184;11.268;2023-07-30T14:05:15;2.85;;;1.50;;
43877;SDS011;29815;48.184;11.268;2023-07-30T14:07:45;3.08;;;1.58;;
43877;SDS011;29815;48.184;11.268;2023-07-30T14:10:15;4.35;;;1.80;;
43877;SDS011;29815;48.184;11.268;2023-07-30T14:12:44;1.63;;;1.42;;
43877;SDS011;29815;48.184;11.268;2023-07-30T14:15:14;3.05;;;1.92;;
43877;SDS011;29815;48.184;11.268;2023-07-30T14:17:44;3.08;;;1.90;;
43877;SDS011;29815;48.184;11.268;2023-07-30T14:20:15;2.47;;;1.75;;
43877;SDS011;29815;48.184;11.268;2023-07-30T14:22:45;1.90;;;1.63;;
43877;SDS011;29815;48.184;11.268;2023-07-30T14:25:14;1.98;;;1.60;;
43877;SDS011;29815;48.184;11.268;2023-07-30T14:27:44;2.20;;;1.63;;
43877;SDS011;29815;48.184;11.268;2023-07-30T14:30:14;2.58;;;1.83;;
43877;SDS011;29815;48.184;11.268;2023-07-30T14:32:43;2.22;;;1.50;;
43877;SDS011;29815;48.184;11.268;2023-07-30T14:35:13;4.18;;;1.98;;
43877;SDS011;29815;48.184;11.268;2023-07-30T14:37:44;3.00;;;1.88;;
43877;SDS011;29815;48.184;11.268;2023-07-30T14:40:14;2.45;;;1.63;;
43877;SDS011;29815;48.184;11.268;2023-07-30T14:42:44;3.63;;;1.88;;
43877;SDS011;29815;48.184;11.268;2023-07-30T14:45:14;2.38;;;1.77;;
43877;SDS011;29815;48.184;11.268;2023-07-30T14:47:43;2.42;;;1.60;;
43877;SDS011;29815;48.184;11.268;2023-07-30T14:50:17;3.95;;;1.80;;
43877;SDS011;29815;48.184;11.268;2023-07-30T14:52:47;3.28;;;1.58;;
43877;SDS011;29815;48.184;11.268;2023-07-30T14:55:17;2.60;;;1.60;;
43877;SDS011;29815;48.184;11.268;2023-07-30T14:57:46;2.97;;;2.00;;
43877;SDS011;29815;48.184;11.268;2023-07-30T15:00:16;2.63;;;1.50;;